createdAt,value
2018-07-30T00:00:01.900Z,23.1
2018-07-30T00:05:01.569Z,23.1
2018-07-30T00:10:02.171Z,23.1
2018-07-30T00:15:02.911Z,23
2018-07-30T00:20:02.650Z,23
2018-07-30T00:25:01.607Z,22.9
2018-07-30T00:30:02.289Z,22.7
2018-07-30T00:35:03.135Z,22.7
2018-07-30T00:40:01.959Z,22.7
2018-07-30T00:45:01.980Z,22.7
2018-07-30T00:50:01.384Z,22.7
2018-07-30T00:55:02.403Z,22.6
2018-07-30T01:00:01.457Z,22.4
2018-07-30T01:05:01.395Z,22.3
2018-07-30T01:10:01.255Z,22.3
2018-07-30T01:15:02.386Z,22.3
2018-07-30T01:20:01.289Z,22.3
2018-07-30T01:25:02.068Z,22.3
2018-07-30T01:30:01.943Z,22.4
2018-07-30T01:35:01.564Z,22.4
2018-07-30T01:40:01.323Z,22.4
2018-07-30T01:45:01.533Z,22.5
2018-07-30T01:50:02.428Z,22.5
2018-07-30T01:55:01.176Z,22.5
2018-07-30T02:00:01.635Z,22.4
2018-07-30T02:05:01.264Z,22.4
2018-07-30T02:10:02.413Z,22.3
2018-07-30T02:15:01.899Z,22.3
2018-07-30T02:20:01.394Z,22.3
2018-07-30T02:25:01.498Z,22.5
2018-07-30T02:30:02.637Z,22.5
2018-07-30T02:35:01.947Z,22.6
2018-07-30T02:40:01.271Z,22.6
2018-07-30T02:45:01.921Z,22.6
2018-07-30T02:50:01.690Z,22.6
2018-07-30T02:55:01.954Z,22.6
2018-07-30T03:00:01.904Z,22.6
2018-07-30T03:05:02.424Z,22.7
2018-07-30T03:10:02.203Z,22.7
2018-07-30T03:15:01.607Z,22.7
2018-07-30T03:20:01.737Z,22.6
2018-07-30T03:25:02.359Z,22.5
2018-07-30T03:30:02.819Z,22.5
2018-07-30T03:35:02.112Z,22.6
2018-07-30T03:40:01.724Z,22.6
2018-07-30T03:45:01.510Z,22.7
2018-07-30T03:50:01.882Z,22.7
2018-07-30T03:55:02.016Z,22.7
2018-07-30T04:00:02.378Z,22.7
2018-07-30T04:05:01.953Z,22.6
2018-07-30T04:10:01.174Z,22.6
2018-07-30T04:15:01.901Z,22.6
2018-07-30T04:20:02.080Z,22.7
2018-07-30T04:25:01.790Z,22.7
2018-07-30T04:30:01.688Z,22.9
2018-07-30T04:35:01.733Z,22.9
2018-07-30T04:40:01.942Z,23
2018-07-30T04:45:01.233Z,23.5
2018-07-30T04:50:01.355Z,23.5
2018-07-30T04:55:01.500Z,23.6
2018-07-30T05:00:01.352Z,23.5
2018-07-30T05:05:02.061Z,23.6
2018-07-30T05:10:01.747Z,23.6
2018-07-30T05:15:01.426Z,23.7
2018-07-30T05:20:01.294Z,23.8
2018-07-30T05:25:02.599Z,24
2018-07-30T05:30:01.192Z,24.3
2018-07-30T05:35:02.071Z,24.6
2018-07-30T05:40:01.917Z,24.7
2018-07-30T05:45:02.082Z,25
2018-07-30T05:50:01.538Z,25.1
2018-07-30T05:55:01.755Z,25.3
2018-07-30T06:00:01.171Z,25.6
2018-07-30T06:05:02.907Z,25.7
2018-07-30T06:10:01.398Z,25.7
2018-07-30T06:15:01.913Z,25.8
2018-07-30T06:20:01.252Z,26.1
2018-07-30T06:25:03.137Z,26.2
2018-07-30T06:30:01.547Z,26.6
2018-07-30T06:35:01.391Z,27
2018-07-30T06:40:01.253Z,27.3
2018-07-30T06:45:01.738Z,27.7
2018-07-30T06:50:01.810Z,27.8
2018-07-30T06:55:02.083Z,28.1
2018-07-30T07:00:01.557Z,28.4
2018-07-30T07:05:02.355Z,28.4
2018-07-30T07:10:01.421Z,28.4
2018-07-30T07:15:01.263Z,28.3
2018-07-30T07:20:01.502Z,28.1
2018-07-30T07:25:01.883Z,28.3
2018-07-30T07:30:01.456Z,28.7
2018-07-30T07:35:01.685Z,29.2
2018-07-30T07:40:02.023Z,29.1
2018-07-30T07:45:02.129Z,29
2018-07-30T07:50:02.174Z,29.1
2018-07-30T07:55:01.833Z,29.4
2018-07-30T08:00:02.185Z,29.6
2018-07-30T08:05:01.780Z,29.2
2018-07-30T08:10:02.540Z,29.7
2018-07-30T08:15:01.448Z,30.1
2018-07-30T08:20:01.181Z,30.4
2018-07-30T08:25:02.083Z,30.5
2018-07-30T08:30:02.472Z,30.7
2018-07-30T08:35:02.122Z,30.5
2018-07-30T08:40:01.900Z,30.3
2018-07-30T08:45:01.240Z,29.9
2018-07-30T08:50:02.231Z,29.8
2018-07-30T08:55:02.177Z,29.9
2018-07-30T09:00:01.573Z,30.2
2018-07-30T09:05:01.667Z,30.2
2018-07-30T09:10:01.524Z,30.2
2018-07-30T09:15:02.170Z,30.3
2018-07-30T09:20:01.383Z,30.3
2018-07-30T09:25:02.080Z,30.2
2018-07-30T09:30:01.729Z,30.5
2018-07-30T09:35:02.118Z,30.3
2018-07-30T09:40:01.781Z,30.2
2018-07-30T09:45:02.006Z,30
2018-07-30T09:50:01.670Z,30.1
2018-07-30T09:55:01.752Z,30.2
2018-07-30T10:00:01.715Z,30.3
2018-07-30T10:05:01.986Z,30.4
2018-07-30T10:10:01.936Z,30.7
2018-07-30T10:15:02.317Z,30.8
2018-07-30T10:20:02.150Z,31.1
2018-07-30T10:25:01.785Z,31.6
2018-07-30T10:30:01.278Z,31.7
2018-07-30T10:35:02.367Z,31.7
2018-07-30T10:40:02.133Z,31.3
2018-07-30T10:45:01.293Z,31.5
2018-07-30T10:50:01.373Z,31.5
2018-07-30T10:55:02.249Z,31.5
2018-07-30T11:00:01.532Z,31.3
2018-07-30T11:05:02.169Z,31.3
2018-07-30T11:10:01.162Z,31.6
2018-07-30T11:15:01.656Z,31.7
2018-07-30T11:20:01.382Z,32.1
2018-07-30T11:25:01.695Z,32.4
2018-07-30T11:30:01.707Z,32.6
2018-07-30T11:35:01.990Z,33.3
2018-07-30T11:40:01.866Z,34
2018-07-30T11:45:01.376Z,34
2018-07-30T11:50:01.241Z,34.5
2018-07-30T11:55:01.727Z,34.3
2018-07-30T12:00:01.531Z,34.2
2018-07-30T12:05:01.908Z,33.9
2018-07-30T12:10:01.902Z,34.3
2018-07-30T12:15:02.377Z,33.9
2018-07-30T12:20:02.034Z,33.6
2018-07-30T12:25:01.408Z,33.3
2018-07-30T12:30:01.335Z,33.5
2018-07-30T12:35:02.132Z,33.4
2018-07-30T12:40:01.853Z,33.4
2018-07-30T12:45:01.382Z,33.8
2018-07-30T12:50:01.588Z,33.9
2018-07-30T12:55:02.023Z,33.8
2018-07-30T13:00:01.525Z,33.9
2018-07-30T13:05:01.935Z,34.1
2018-07-30T13:10:02.033Z,33.9
2018-07-30T13:15:01.810Z,33.7
2018-07-30T13:20:02.023Z,33.8
2018-07-30T13:25:02.327Z,34
2018-07-30T13:30:01.620Z,33.7
2018-07-30T13:35:02.036Z,33.3
2018-07-30T13:40:02.469Z,34
2018-07-30T13:45:01.895Z,34.3
2018-07-30T13:50:01.623Z,34.2
2018-07-30T13:55:01.808Z,34
2018-07-30T14:00:01.976Z,33.9
2018-07-30T14:05:02.164Z,33.7
2018-07-30T14:10:01.273Z,34.2
2018-07-30T14:15:02.024Z,34.3
2018-07-30T14:20:01.721Z,34.1
2018-07-30T14:25:01.298Z,34.1
2018-07-30T14:30:02.213Z,34.3
2018-07-30T14:35:01.850Z,34.3
2018-07-30T14:40:01.407Z,35
2018-07-30T14:45:01.600Z,35.2
2018-07-30T14:50:02.057Z,35.2
2018-07-30T14:55:01.924Z,34.5
2018-07-30T15:00:01.498Z,34.5
2018-07-30T15:05:01.509Z,34
2018-07-30T15:10:01.891Z,34.2
2018-07-30T15:15:02.166Z,34.6
2018-07-30T15:20:02.058Z,35
2018-07-30T15:25:01.852Z,34.7
2018-07-30T15:30:01.664Z,34.6
2018-07-30T15:35:01.541Z,33.9
2018-07-30T15:40:01.687Z,32.9
2018-07-30T15:45:01.780Z,32.1
2018-07-30T15:50:01.998Z,31.7
2018-07-30T15:55:01.673Z,31.8
2018-07-30T16:15:01.244Z,31.5
2018-07-30T16:20:02.088Z,31.5
2018-07-30T16:25:01.513Z,31.8
2018-07-30T16:30:02.448Z,31.8
2018-07-30T16:35:01.267Z,31.9
2018-07-30T16:40:02.171Z,31.8
2018-07-30T16:45:01.783Z,31.7
2018-07-30T16:50:02.199Z,31.5
2018-07-30T16:55:02.017Z,31.3
2018-07-30T17:00:01.679Z,31.3
2018-07-30T17:05:01.899Z,31.3
2018-07-30T17:10:01.413Z,31.1
2018-07-30T17:15:01.804Z,31
2018-07-30T17:20:01.598Z,31
2018-07-30T17:25:01.435Z,31.1
2018-07-30T17:30:01.789Z,30.8
2018-07-30T17:35:02.020Z,30.3
2018-07-30T17:40:01.576Z,30.1
2018-07-30T17:45:02.054Z,29.9
2018-07-30T17:50:01.701Z,29.7
2018-07-30T17:55:02.246Z,29.4
2018-07-30T18:00:02.017Z,29.2
2018-07-30T18:05:02.213Z,29.1
2018-07-30T18:10:02.720Z,29.1
2018-07-30T18:15:01.741Z,29.2
2018-07-30T18:20:02.172Z,29.1
2018-07-30T18:25:02.522Z,29
2018-07-30T18:30:01.716Z,28.9
2018-07-30T18:35:02.104Z,28.7
2018-07-30T18:40:01.946Z,28.6
2018-07-30T18:45:01.887Z,28.5
2018-07-30T18:50:02.014Z,28.3
2018-07-30T18:55:01.263Z,28.2
2018-07-30T19:00:01.636Z,28
2018-07-30T19:05:01.516Z,27.8
2018-07-30T19:10:01.946Z,27.7
2018-07-30T19:15:02.234Z,27.5
2018-07-30T19:20:01.503Z,27.4
2018-07-30T19:25:02.082Z,27.3
2018-07-30T19:30:01.665Z,27.2
2018-07-30T19:35:01.574Z,27.1
2018-07-30T19:40:02.123Z,26.8
2018-07-30T19:45:01.698Z,26.8
2018-07-30T19:50:01.896Z,26.7
2018-07-30T19:55:02.206Z,26.6
2018-07-30T20:00:01.689Z,26.5
2018-07-30T20:05:02.415Z,26.5
2018-07-30T20:10:02.005Z,26.5
2018-07-30T20:15:01.753Z,26.4
2018-07-30T20:20:02.409Z,26.4
2018-07-30T20:25:01.500Z,26.4
2018-07-30T20:30:01.531Z,26.4
2018-07-30T20:35:01.810Z,26.3
2018-07-30T20:40:02.265Z,26.1
2018-07-30T20:45:02.184Z,26
2018-07-30T20:50:02.011Z,26.1
2018-07-30T20:55:01.871Z,26.1
2018-07-30T21:00:01.667Z,26
2018-07-30T21:05:01.420Z,26
2018-07-30T21:10:01.350Z,25.9
2018-07-30T21:15:01.566Z,25.9
2018-07-30T21:20:01.588Z,25.7
2018-07-30T21:25:02.126Z,25.7
2018-07-30T21:30:01.610Z,25.7
2018-07-30T21:35:02.494Z,25.7
2018-07-30T21:40:01.291Z,25.7
2018-07-30T21:45:01.706Z,25.7
2018-07-30T21:50:01.718Z,25.7
2018-07-30T21:55:01.571Z,25.6
2018-07-30T22:00:01.512Z,25.6
2018-07-30T22:10:02.243Z,25.6
2018-07-30T22:15:01.930Z,25.6
2018-07-30T22:20:02.015Z,25.6
2018-07-30T22:25:01.351Z,25.6
2018-07-30T22:30:01.545Z,25.5
2018-07-30T22:40:01.762Z,25.4
2018-07-30T22:45:02.582Z,25.3
2018-07-30T22:50:01.525Z,25.3
2018-07-30T22:55:01.395Z,25.3
2018-07-30T23:00:01.571Z,25.3
2018-07-30T23:05:01.809Z,25.3
2018-07-30T23:10:01.678Z,25.3
2018-07-30T23:15:01.955Z,25.3
2018-07-30T23:20:01.909Z,25.3
2018-07-30T23:25:01.788Z,25.4
2018-07-30T23:30:01.670Z,25.4
2018-07-30T23:35:01.722Z,25.5
2018-07-30T23:40:01.433Z,25.6
2018-07-30T23:45:01.380Z,25.6
2018-07-30T23:50:01.909Z,25.6
2018-07-30T23:55:02.392Z,25.6
